createdAt,value
2022-11-15T00:00:31.354Z,4.36
2022-11-15T00:03:20.815Z,4.39
2022-11-15T00:06:10.024Z,4.37
2022-11-15T00:09:00.543Z,4.36
2022-11-15T00:11:48.849Z,4.35
2022-11-15T00:14:36.837Z,4.29
2022-11-15T00:17:25.134Z,4.16
2022-11-15T00:20:13.681Z,4.17
2022-11-15T00:23:04.236Z,4.16
2022-11-15T00:25:58.804Z,4.16
2022-11-15T00:28:46.804Z,4.12
2022-11-15T00:31:35.290Z,4.05
2022-11-15T00:34:26.385Z,4.08
2022-11-15T00:37:14.875Z,4.10
2022-11-15T00:40:02.934Z,4.05
2022-11-15T00:42:50.884Z,4.03
2022-11-15T00:45:38.764Z,4.11
2022-11-15T00:48:26.676Z,4.07
2022-11-15T00:51:14.964Z,4.04
2022-11-15T00:54:03.414Z,4.02
2022-11-15T00:56:51.625Z,4.07
2022-11-15T00:59:40.015Z,4.07
2022-11-15T01:02:28.702Z,4.11
2022-11-15T01:05:17.233Z,4.08
2022-11-15T01:08:06.024Z,4.08
2022-11-15T01:10:57.686Z,3.97
2022-11-15T01:13:46.248Z,4.01
2022-11-15T01:16:34.704Z,3.91
2022-11-15T01:19:22.861Z,3.88
2022-11-15T01:22:11.264Z,3.86
2022-11-15T01:24:59.713Z,3.90
2022-11-15T01:27:47.875Z,3.93
2022-11-15T01:30:36.933Z,3.93
2022-11-15T01:33:25.348Z,3.88
2022-11-15T01:36:15.013Z,3.91
2022-11-15T01:39:03.085Z,3.91
2022-11-15T01:41:51.720Z,3.98
2022-11-15T01:44:45.313Z,3.93
2022-11-15T01:47:38.018Z,3.93
2022-11-15T01:50:32.832Z,3.94
2022-11-15T01:53:24.176Z,3.98
2022-11-15T01:56:15.194Z,3.93
2022-11-15T01:59:08.323Z,3.91
2022-11-15T02:01:57.234Z,3.88
2022-11-15T02:04:47.277Z,3.78
2022-11-15T02:07:37.157Z,3.67
2022-11-15T02:10:26.516Z,3.64
2022-11-15T02:13:15.274Z,3.62
2022-11-15T02:16:16.804Z,3.64
2022-11-15T02:19:23.018Z,3.56
2022-11-15T02:22:23.784Z,3.55
2022-11-15T02:25:39.039Z,3.50
2022-11-15T02:28:46.567Z,3.57
2022-11-15T02:31:42.614Z,3.58
2022-11-15T02:34:36.814Z,3.60
2022-11-15T02:37:29.284Z,3.62
2022-11-15T02:40:28.894Z,3.43
2022-11-15T02:43:40.764Z,3.36
2022-11-15T02:46:54.726Z,3.32
2022-11-15T02:49:46.543Z,3.20
2022-11-15T02:52:34.825Z,3.12
2022-11-15T02:55:34.884Z,3.11
2022-11-15T02:58:42.744Z,3.11
2022-11-15T03:01:49.995Z,3.18
2022-11-15T03:04:45.996Z,3.16
2022-11-15T03:07:41.246Z,3.17
2022-11-15T03:10:40.926Z,3.12
2022-11-15T03:13:34.809Z,3.10
2022-11-15T03:16:29.475Z,2.94
2022-11-15T03:19:25.253Z,2.85
2022-11-15T03:22:17.043Z,2.82
2022-11-15T03:25:08.935Z,2.79
2022-11-15T03:28:00.686Z,2.78
2022-11-15T03:30:53.194Z,2.82
2022-11-15T03:34:12.163Z,2.82
2022-11-15T03:37:02.677Z,2.87
2022-11-15T03:39:50.815Z,2.86
2022-11-15T03:42:44.943Z,2.93
2022-11-15T03:45:37.492Z,2.93
2022-11-15T03:48:29.456Z,2.95
2022-11-15T03:51:17.934Z,2.82
2022-11-15T03:54:06.878Z,2.75
2022-11-15T03:56:58.145Z,2.73
2022-11-15T03:59:46.494Z,2.69
2022-11-15T04:02:34.676Z,2.61
2022-11-15T04:05:22.937Z,2.60
2022-11-15T04:08:11.046Z,2.62
2022-11-15T04:11:01.170Z,2.69
2022-11-15T04:13:50.454Z,2.63
2022-11-15T04:16:43.696Z,2.63
2022-11-15T04:19:50.374Z,2.60
2022-11-15T04:23:01.945Z,2.56
2022-11-15T04:25:54.932Z,2.47
2022-11-15T04:28:57.714Z,2.48
2022-11-15T04:31:45.567Z,2.50
2022-11-15T04:34:34.916Z,2.53
2022-11-15T04:37:22.862Z,2.51
2022-11-15T04:40:12.412Z,2.48
2022-11-15T04:43:03.960Z,2.52
2022-11-15T04:45:52.702Z,2.51
2022-11-15T04:48:40.636Z,2.52
2022-11-15T04:51:28.675Z,2.55
2022-11-15T04:54:17.444Z,2.49
2022-11-15T04:57:08.697Z,2.48
2022-11-15T04:59:56.726Z,2.52
2022-11-15T05:03:07.764Z,2.45
2022-11-15T05:05:56.619Z,2.40
2022-11-15T05:08:44.675Z,2.37
2022-11-15T05:11:32.787Z,2.36
2022-11-15T05:14:20.755Z,2.44
2022-11-15T05:17:09.043Z,2.42
2022-11-15T05:19:57.446Z,2.42
2022-11-15T05:22:45.407Z,2.46
2022-11-15T05:25:33.706Z,2.50
2022-11-15T05:28:21.573Z,2.49
2022-11-15T05:31:11.625Z,2.51
2022-11-15T05:34:02.048Z,2.52
2022-11-15T05:36:50.683Z,2.45
2022-11-15T05:39:38.334Z,2.29
2022-11-15T05:42:28.855Z,2.32
2022-11-15T05:45:26.557Z,2.30
2022-11-15T05:48:16.010Z,2.25
2022-11-15T05:51:06.207Z,2.30
2022-11-15T05:53:56.926Z,2.24
2022-11-15T05:56:48.608Z,2.18
2022-11-15T05:59:38.686Z,2.24
2022-11-15T06:02:27.282Z,2.09
2022-11-15T06:05:15.416Z,2.04
2022-11-15T06:08:03.615Z,2.08
2022-11-15T06:10:54.045Z,2.08
2022-11-15T06:13:42.147Z,2.09
2022-11-15T06:16:30.293Z,2.05
2022-11-15T06:19:18.334Z,2.07
2022-11-15T06:22:09.967Z,2.10
2022-11-15T06:25:04.069Z,2.09
2022-11-15T06:27:56.529Z,2.11
2022-11-15T06:30:47.932Z,2.11
2022-11-15T06:33:40.052Z,2.14
2022-11-15T06:36:28.214Z,2.17
2022-11-15T06:39:16.477Z,2.13
2022-11-15T06:42:04.776Z,2.21
2022-11-15T06:44:53.303Z,2.21
2022-11-15T06:47:47.701Z,2.23
2022-11-15T06:50:35.791Z,2.29
2022-11-15T06:53:24.234Z,2.41
2022-11-15T06:56:12.469Z,2.51
2022-11-15T06:59:00.376Z,2.55
2022-11-15T07:01:48.876Z,2.64
2022-11-15T07:04:37.347Z,2.74
2022-11-15T07:07:26.056Z,2.75
2022-11-15T07:10:14.176Z,2.79
2022-11-15T07:13:02.724Z,2.90
2022-11-15T07:15:50.549Z,2.96
2022-11-15T07:18:39.984Z,3.02
2022-11-15T07:21:53.973Z,3.04
2022-11-15T07:24:48.937Z,3.01
2022-11-15T07:27:36.890Z,3.20
2022-11-15T07:30:25.726Z,3.35
2022-11-15T07:33:13.747Z,3.24
2022-11-15T07:36:02.733Z,3.15
2022-11-15T07:38:50.666Z,3.14
2022-11-15T07:41:39.218Z,3.25
2022-11-15T07:44:27.716Z,3.44
2022-11-15T07:47:16.661Z,3.64
2022-11-15T07:50:05.778Z,3.79
2022-11-15T07:52:57.514Z,3.83
2022-11-15T07:55:46.404Z,3.96
2022-11-15T07:58:34.409Z,4.17
2022-11-15T08:01:22.718Z,4.37
2022-11-15T08:04:12.493Z,4.45
2022-11-15T08:07:00.752Z,4.36
2022-11-15T08:09:49.145Z,4.48
2022-11-15T08:12:37.646Z,4.65
2022-11-15T08:15:26.026Z,4.89
2022-11-15T08:18:15.613Z,5.13
2022-11-15T08:21:04.426Z,5.22
2022-11-15T08:23:52.866Z,5.31
2022-11-15T08:26:40.827Z,5.34
2022-11-15T08:29:29.051Z,5.30
2022-11-15T08:32:18.339Z,5.18
2022-11-15T08:35:09.247Z,5.24
2022-11-15T08:37:57.521Z,5.47
2022-11-15T08:40:46.358Z,5.81
2022-11-15T08:43:35.502Z,6.06
2022-11-15T08:46:24.085Z,6.23
2022-11-15T08:49:12.561Z,6.36
2022-11-15T08:52:00.935Z,6.50
2022-11-15T08:54:49.138Z,6.59
2022-11-15T08:57:37.227Z,6.81
2022-11-15T09:00:28.086Z,7.02
2022-11-15T09:03:16.606Z,7.27
2022-11-15T09:06:05.408Z,7.48
2022-11-15T09:08:54.229Z,7.67
2022-11-15T09:11:42.373Z,7.87
2022-11-15T09:14:31.107Z,8.05
2022-11-15T09:17:24.435Z,8.20
2022-11-15T09:20:13.911Z,8.21
2022-11-15T09:23:03.260Z,8.17
2022-11-15T09:25:51.826Z,8.28
2022-11-15T09:28:42.316Z,8.51
2022-11-15T09:31:30.899Z,8.72
2022-11-15T09:34:18.777Z,8.82
2022-11-15T09:37:07.376Z,8.99
2022-11-15T09:39:55.505Z,9.11
2022-11-15T09:43:04.370Z,9.30
2022-11-15T09:46:02.159Z,9.42
2022-11-15T09:48:55.785Z,9.53
2022-11-15T09:51:48.748Z,9.57
2022-11-15T09:54:51.659Z,9.64
2022-11-15T09:57:16.519Z,9.65
2022-11-15T10:00:12.405Z,9.74
2022-11-15T10:03:04.324Z,9.93
2022-11-15T10:05:37.651Z,9.85
2022-11-15T10:08:15.043Z,9.81
2022-11-15T10:11:00.579Z,9.99
2022-11-15T10:13:48.230Z,10.12
2022-11-15T10:16:33.058Z,10.32
2022-11-15T10:19:12.529Z,10.56
2022-11-15T10:21:50.174Z,10.74
2022-11-15T10:24:28.718Z,10.91
2022-11-15T10:26:58.677Z,11.07
2022-11-15T10:29:28.158Z,11.17
2022-11-15T10:31:57.595Z,11.25
2022-11-15T10:34:29.833Z,11.27
2022-11-15T10:37:02.254Z,11.34
2022-11-15T10:39:32.097Z,11.43
2022-11-15T10:42:18.081Z,11.52
2022-11-15T10:44:47.960Z,11.50
2022-11-15T10:47:29.795Z,11.66
2022-11-15T10:50:08.208Z,11.78
2022-11-15T10:52:46.023Z,11.87
2022-11-15T10:55:27.247Z,12.02
2022-11-15T10:58:06.637Z,12.17
2022-11-15T11:00:40.299Z,12.22
2022-11-15T11:03:31.009Z,12.33
2022-11-15T11:06:13.786Z,12.34
2022-11-15T11:08:57.137Z,12.40
2022-11-15T11:11:47.570Z,12.44
2022-11-15T11:14:23.624Z,12.52
2022-11-15T11:16:58.065Z,12.53
2022-11-15T11:19:54.244Z,12.64
2022-11-15T11:22:34.106Z,12.78
2022-11-15T11:25:20.605Z,12.85
2022-11-15T11:28:07.310Z,12.89
2022-11-15T11:30:47.974Z,12.87
2022-11-15T11:33:22.945Z,12.84
2022-11-15T11:36:05.115Z,12.85
2022-11-15T11:38:55.891Z,12.64
2022-11-15T11:41:48.033Z,12.56
2022-11-15T11:44:35.406Z,12.62
2022-11-15T11:47:10.904Z,12.61
2022-11-15T11:49:48.084Z,12.71
2022-11-15T11:52:24.447Z,12.62
2022-11-15T11:55:01.902Z,12.48
2022-11-15T11:57:40.970Z,12.27
2022-11-15T12:00:20.438Z,12.25
2022-11-15T12:02:58.943Z,12.31
2022-11-15T12:05:34.617Z,12.33
2022-11-15T12:08:21.654Z,12.36
2022-11-15T12:10:55.145Z,12.39
2022-11-15T12:13:26.706Z,12.33
2022-11-15T12:16:07.451Z,12.30
2022-11-15T12:18:39.076Z,12.36
2022-11-15T12:21:16.270Z,12.34
2022-11-15T12:23:50.302Z,12.36
2022-11-15T12:26:25.090Z,12.39
2022-11-15T12:29:07.625Z,12.42
2022-11-15T12:31:42.206Z,12.40
2022-11-15T12:34:35.137Z,12.28
2022-11-15T12:37:51.142Z,12.22
2022-11-15T12:40:32.444Z,12.22
2022-11-15T12:43:38.225Z,12.24
2022-11-15T12:46:14.186Z,12.19
2022-11-15T12:49:01.096Z,12.18
2022-11-15T12:52:03.738Z,12.16
2022-11-15T12:55:20.147Z,12.14
2022-11-15T12:57:49.797Z,12.08
2022-11-15T13:00:49.010Z,12.11
2022-11-15T13:03:30.168Z,12.09
2022-11-15T13:06:09.069Z,12.15
2022-11-15T13:08:41.248Z,12.20
2022-11-15T13:11:57.895Z,12.25
2022-11-15T13:14:48.651Z,12.28
2022-11-15T13:17:40.796Z,12.30
2022-11-15T13:20:26.787Z,12.33
2022-11-15T13:23:04.498Z,12.32
2022-11-15T13:26:04.724Z,12.32
2022-11-15T13:28:38.021Z,12.29
2022-11-15T13:31:29.526Z,12.28
2022-11-15T13:34:03.532Z,12.22
2022-11-15T13:36:35.282Z,12.09
2022-11-15T13:39:07.049Z,11.92
2022-11-15T13:41:48.939Z,11.87
2022-11-15T13:44:24.515Z,11.87
2022-11-15T13:47:05.504Z,11.80
2022-11-15T13:49:36.191Z,11.73
2022-11-15T13:52:08.109Z,11.67
2022-11-15T13:54:47.372Z,11.63
2022-11-15T13:57:22.565Z,11.58
2022-11-15T13:59:56.336Z,11.57
2022-11-15T14:02:28.665Z,11.56
2022-11-15T14:05:02.708Z,11.50
2022-11-15T14:07:33.250Z,11.50
2022-11-15T14:10:28.523Z,11.48
2022-11-15T14:12:58.680Z,11.47
2022-11-15T14:15:32.448Z,11.42
2022-11-15T14:18:02.817Z,11.42
2022-11-15T14:20:35.835Z,11.38
2022-11-15T14:23:07.234Z,11.32
2022-11-15T14:25:37.917Z,11.31
2022-11-15T14:28:13.014Z,11.20
2022-11-15T14:30:43.758Z,11.13
2022-11-15T14:33:23.356Z,11.06
2022-11-15T14:35:57.812Z,10.99
2022-11-15T14:38:29.110Z,10.87
2022-11-15T14:41:07.447Z,10.81
2022-11-15T14:43:38.355Z,10.82
2022-11-15T14:46:12.456Z,10.78
2022-11-15T14:48:44.876Z,10.70
2022-11-15T14:51:19.860Z,10.67
2022-11-15T14:53:51.717Z,10.65
2022-11-15T14:56:21.387Z,10.65
2022-11-15T14:58:51.187Z,10.64
2022-11-15T15:01:25.017Z,10.64
2022-11-15T15:03:57.667Z,10.65
2022-11-15T15:06:27.951Z,10.65
2022-11-15T15:08:57.724Z,10.62
2022-11-15T15:11:31.097Z,10.60
2022-11-15T15:14:01.815Z,10.47
2022-11-15T15:16:31.910Z,10.32
2022-11-15T15:19:03.700Z,10.28
2022-11-15T15:21:37.584Z,10.27
2022-11-15T15:24:10.105Z,10.25
2022-11-15T15:26:42.876Z,10.21
2022-11-15T15:29:15.448Z,10.10
2022-11-15T15:31:46.025Z,9.98
2022-11-15T15:34:17.015Z,9.94
2022-11-15T15:36:46.865Z,9.90
2022-11-15T15:39:16.648Z,9.89
2022-11-15T15:41:47.052Z,9.85
2022-11-15T15:44:16.897Z,9.83
2022-11-15T15:46:49.278Z,9.84
2022-11-15T15:49:19.067Z,9.85
2022-11-15T15:51:57.006Z,9.83
2022-11-15T15:54:30.810Z,9.84
2022-11-15T15:56:59.766Z,9.83
2022-11-15T15:59:29.185Z,9.77
2022-11-15T16:01:58.655Z,9.80
2022-11-15T16:04:29.235Z,9.76
2022-11-15T16:07:02.259Z,9.78
2022-11-15T16:09:49.276Z,9.80
2022-11-15T16:12:18.790Z,9.80
2022-11-15T16:14:48.174Z,9.70
2022-11-15T16:17:21.328Z,9.54
2022-11-15T16:19:50.914Z,9.49
2022-11-15T16:22:21.162Z,9.46
2022-11-15T16:24:51.527Z,9.40
2022-11-15T16:27:22.274Z,9.36
2022-11-15T16:29:53.146Z,9.30
2022-11-15T16:32:25.485Z,9.26
2022-11-15T16:35:00.320Z,9.24
2022-11-15T16:37:30.367Z,9.25
2022-11-15T16:40:04.574Z,9.25
2022-11-15T16:42:35.103Z,9.19
2022-11-15T16:45:05.667Z,9.06
2022-11-15T16:47:37.605Z,9.08
2022-11-15T16:50:12.106Z,9.09
2022-11-15T16:52:43.684Z,9.06
2022-11-15T16:55:13.326Z,9.07
2022-11-15T16:57:42.838Z,9.07
2022-11-15T17:00:16.418Z,9.03
2022-11-15T17:02:45.080Z,8.88
2022-11-15T17:05:20.103Z,8.82
2022-11-15T17:07:52.059Z,8.88
2022-11-15T17:10:22.695Z,8.91
2022-11-15T17:12:55.717Z,8.89
2022-11-15T17:15:25.622Z,8.87
2022-11-15T17:17:56.214Z,8.85
2022-11-15T17:20:26.670Z,8.76
2022-11-15T17:22:58.824Z,8.83
2022-11-15T17:25:28.599Z,8.87
2022-11-15T17:27:58.464Z,8.90
2022-11-15T17:30:28.377Z,8.94
2022-11-15T17:33:00.648Z,8.97
2022-11-15T17:35:30.576Z,9.00
2022-11-15T17:37:59.931Z,9.02
2022-11-15T17:40:29.487Z,9.04
2022-11-15T17:43:02.346Z,9.02
2022-11-15T17:45:32.306Z,8.91
2022-11-15T17:48:02.997Z,8.80
2022-11-15T17:50:33.068Z,8.81
2022-11-15T17:53:04.786Z,8.82
2022-11-15T17:55:34.846Z,8.84
2022-11-15T17:58:04.147Z,8.86
2022-11-15T18:00:34.558Z,8.86
2022-11-15T18:03:04.648Z,8.81
2022-11-15T18:05:34.318Z,8.73
2022-11-15T18:08:03.757Z,8.68
2022-11-15T18:10:36.607Z,8.72
2022-11-15T18:13:06.575Z,8.74
2022-11-15T18:15:36.368Z,8.71
2022-11-15T18:18:06.096Z,8.74
2022-11-15T18:20:35.760Z,8.77
2022-11-15T18:23:06.797Z,8.77
2022-11-15T18:25:36.276Z,8.75
2022-11-15T18:28:06.297Z,8.72
2022-11-15T18:30:38.386Z,8.74
2022-11-15T18:33:07.975Z,8.73
2022-11-15T18:35:38.477Z,8.77
2022-11-15T18:38:08.037Z,8.79
2022-11-15T18:40:37.628Z,8.79
2022-11-15T18:43:07.213Z,8.79
2022-11-15T18:45:39.391Z,8.79
2022-11-15T18:48:12.980Z,8.79
2022-11-15T18:50:47.905Z,8.78
2022-11-15T18:53:27.827Z,8.75
2022-11-15T18:56:06.330Z,8.70
2022-11-15T18:58:38.842Z,8.67
2022-11-15T19:01:11.507Z,8.67
2022-11-15T19:03:51.098Z,8.66
2022-11-15T19:06:23.494Z,8.69
2022-11-15T19:08:59.408Z,8.72
2022-11-15T19:11:32.884Z,8.73
2022-11-15T19:14:06.411Z,8.76
2022-11-15T19:16:43.048Z,8.79
2022-11-15T19:19:22.106Z,8.81
2022-11-15T19:21:53.068Z,8.81
2022-11-15T19:24:25.276Z,8.82
2022-11-15T19:26:57.715Z,8.85
2022-11-15T19:29:27.071Z,8.87
2022-11-15T19:32:00.348Z,8.88
2022-11-15T19:34:31.513Z,8.89
2022-11-15T19:37:02.898Z,8.91
2022-11-15T19:39:35.830Z,8.91
2022-11-15T19:42:10.555Z,8.88
2022-11-15T19:44:41.107Z,8.87
2022-11-15T19:47:10.921Z,8.87
2022-11-15T19:49:43.645Z,8.88
2022-11-15T19:52:16.257Z,8.88
2022-11-15T19:54:48.947Z,8.87
2022-11-15T19:57:18.924Z,8.90
2022-11-15T19:59:49.129Z,8.90
2022-11-15T20:02:18.890Z,8.91
2022-11-15T20:04:48.778Z,8.91
2022-11-15T20:07:18.336Z,8.94
2022-11-15T20:09:48.826Z,8.94
2022-11-15T20:12:18.447Z,8.93
2022-11-15T20:14:48.735Z,8.93
2022-11-15T20:17:19.731Z,8.92
2022-11-15T20:19:53.784Z,8.92
2022-11-15T20:22:26.046Z,8.93
2022-11-15T20:24:56.122Z,8.92
2022-11-15T20:27:26.444Z,8.92
2022-11-15T20:29:58.804Z,8.92
2022-11-15T20:32:36.367Z,8.92
2022-11-15T20:35:10.255Z,8.91
2022-11-15T20:37:48.614Z,8.89
2022-11-15T20:40:19.454Z,8.83
2022-11-15T20:43:01.168Z,8.73
2022-11-15T20:45:31.387Z,8.68
2022-11-15T20:48:00.776Z,8.68
2022-11-15T20:50:46.171Z,8.66
2022-11-15T20:53:18.665Z,8.70
2022-11-15T20:55:53.050Z,8.73
2022-11-15T20:58:22.978Z,8.75
2022-11-15T21:00:56.686Z,8.75
2022-11-15T21:03:26.256Z,8.73
2022-11-15T21:06:01.392Z,8.73
2022-11-15T21:08:53.935Z,8.73
2022-11-15T21:11:41.656Z,8.75
2022-11-15T21:14:11.096Z,8.77
2022-11-15T21:16:43.651Z,8.78
2022-11-15T21:19:14.088Z,8.79
2022-11-15T21:21:43.602Z,8.80
2022-11-15T21:24:13.318Z,8.80
2022-11-15T21:26:42.881Z,8.80
2022-11-15T21:29:16.993Z,8.79
2022-11-15T21:31:52.507Z,8.79
2022-11-15T21:34:22.298Z,8.79
2022-11-15T21:36:51.705Z,8.78
2022-11-15T21:39:21.354Z,8.75
2022-11-15T21:41:50.813Z,8.72
2022-11-15T21:44:20.264Z,8.69
2022-11-15T21:46:52.206Z,8.68
2022-11-15T21:49:22.427Z,8.66
2022-11-15T21:51:51.785Z,8.64
2022-11-15T21:54:21.159Z,8.59
2022-11-15T21:56:50.477Z,8.54
2022-11-15T21:59:19.883Z,8.52
2022-11-15T22:02:07.405Z,8.52
2022-11-15T22:04:39.720Z,8.47
2022-11-15T22:07:09.311Z,8.46
2022-11-15T22:09:39.187Z,8.44
2022-11-15T22:12:11.696Z,8.42
2022-11-15T22:14:41.050Z,8.42
2022-11-15T22:17:13.943Z,8.44
2022-11-15T22:19:52.205Z,8.42
2022-11-15T22:22:22.895Z,8.41
2022-11-15T22:24:53.006Z,8.42
2022-11-15T22:27:23.406Z,8.39
2022-11-15T22:29:53.725Z,8.40
2022-11-15T22:32:23.705Z,8.37
2022-11-15T22:34:55.907Z,8.33
2022-11-15T22:37:25.445Z,8.35
2022-11-15T22:39:56.107Z,8.35
2022-11-15T22:42:26.296Z,8.35
2022-11-15T22:44:56.607Z,8.34
2022-11-15T22:47:26.655Z,8.30
2022-11-15T22:49:59.494Z,8.27
2022-11-15T22:52:29.238Z,8.26
2022-11-15T22:55:03.337Z,8.25
2022-11-15T22:57:33.063Z,8.23
2022-11-15T23:00:03.435Z,8.20
2022-11-15T23:02:33.956Z,8.13
2022-11-15T23:05:04.396Z,8.07
2022-11-15T23:07:34.912Z,8.08
2022-11-15T23:10:19.327Z,8.08
2022-11-15T23:13:07.416Z,8.08
2022-11-15T23:15:51.427Z,8.08
2022-11-15T23:18:21.347Z,8.07
2022-11-15T23:20:51.127Z,8.06
2022-11-15T23:23:20.766Z,8.07
2022-11-15T23:25:59.269Z,8.06
2022-11-15T23:28:29.065Z,7.98
2022-11-15T23:31:24.044Z,7.92
2022-11-15T23:33:59.716Z,7.85
2022-11-15T23:36:29.917Z,7.82
2022-11-15T23:38:59.566Z,7.84
2022-11-15T23:41:29.344Z,7.87
2022-11-15T23:43:59.025Z,7.89
2022-11-15T23:46:28.884Z,7.89
2022-11-15T23:48:58.647Z,7.89
2022-11-15T23:51:28.557Z,7.88
2022-11-15T23:53:58.695Z,7.90
2022-11-15T23:56:28.420Z,7.87
2022-11-15T23:58:58.330Z,7.87
